Eastmont, South Carolina
Current Conditions -  °F | °C
As of 9:53 AM on Wednesday 22 Oct 2014 (Local Time) from KCUB Reporting Station
Clear Clear  
Wind Chill: 57°   Ceiling: Unl
Heat Index: 57°   Visibility: 10mi
Dew Point: 40°   Wind: 3mph
Humidity: 53%   Direction: NA
Pressure: 30.09"   Gusts: NA
Location:  33.9488°N, 80.9462°W
Report Text: KCUB 221353Z AUTO VRB03KT 10SM CLR 14/04 A3009 RMK AO2 SLP187 T01390044
Loading
Personal Weather Stations






























Interactive Weather Map
Tropical Storm Tracking
New forecast layout! Learn more

10-Day Weather Forecast

Advertisements
Track Severe Weather on mobile